Time;durP1;ratioP1;P1;durP2;ratioP2;P2;SDS_P1;SDS_P2;PMS_P1;PMS_P2;Temp;Humidity;BMP_temperature;BMP_pressure;BME280_temperature;BME280_humidity;BME280_pressure;Samples;Min_cycle;Max_cycle;Signal;HPM_P1;HPM_P2
2021/10/30 00:01:00;;;;;;;8.67;7.70;;;;;;;10.19;70.35;100194.94;5030482;28;20574;-71
2021/10/30 00:03:26;;;;;;;8.70;7.70;;;;;;;10.18;70.36;100196.72;5029444;28;20246;-70
2021/10/30 00:05:53;;;;;;;7.93;7.00;;;;;;;10.16;70.62;100200.44;5030398;28;20302;-70
2021/10/30 00:08:20;;;;;;;8.10;6.87;;;;;;;10.14;70.71;100186.38;5030386;28;20217;-71
2021/10/30 00:10:46;;;;;;;10.10;6.93;;;;;;;10.12;70.54;100181.16;5028236;28;20671;-71
2021/10/30 00:13:14;;;;;;;8.10;6.73;;;;;;;10.10;70.54;100181.25;5029888;28;20607;-72
2021/10/30 00:15:42;;;;;;;9.30;6.93;;;;;;;10.10;70.83;100181.25;5029568;28;20234;-72
2021/10/30 00:18:08;;;;;;;9.83;7.17;;;;;;;10.11;70.57;100184.78;5029744;28;20206;-72
2021/10/30 00:20:35;;;;;;;9.90;8.17;;;;;;;10.09;70.89;100178.69;5029907;28;20214;-72
2021/10/30 00:23:01;;;;;;;9.07;6.93;;;;;;;10.07;70.61;100176.13;5029369;28;20237;-71
2021/10/30 00:25:28;;;;;;;9.93;7.57;;;;;;;10.07;70.81;100180.59;5029972;28;20218;-72
2021/10/30 00:27:55;;;;;;;9.97;7.63;;;;;;;10.05;70.85;100194.00;5028483;28;20217;-72
2021/10/30 00:30:23;;;;;;;9.77;7.57;;;;;;;10.03;70.96;100189.78;5030054;28;20198;-71
2021/10/30 00:32:50;;;;;;;8.30;7.27;;;;;;;10.00;71.03;100185.50;5042015;28;20233;-71
2021/10/30 00:35:17;;;;;;;9.40;8.03;;;;;;;9.99;71.27;100186.47;5029288;28;20234;-70
2021/10/30 00:37:43;;;;;;;8.90;7.50;;;;;;;9.97;70.87;100179.53;5029989;28;20216;-71
2021/10/30 00:40:12;;;;;;;11.77;7.10;;;;;;;9.97;71.18;100184.88;5028475;28;20579;-71
2021/10/30 00:42:38;;;;;;;8.83;7.10;;;;;;;9.95;71.32;100186.78;5019522;28;20230;-71
2021/10/30 00:45:06;;;;;;;8.83;7.20;;;;;;;9.93;71.35;100184.22;5032961;28;20690;-71
2021/10/30 00:47:34;;;;;;;10.37;7.00;;;;;;;9.93;71.34;100180.72;5033834;28;20217;-71
2021/10/30 00:50:01;;;;;;;10.17;7.10;;;;;;;9.92;71.19;100182.50;5033254;28;20209;-72
2021/10/30 00:52:30;;;;;;;8.03;6.80;;;;;;;9.92;71.79;100187.84;5033929;28;20241;-72
2021/10/30 00:54:59;;;;;;;8.33;6.27;;;;;;;9.93;71.36;100184.22;5032715;28;20737;-71
2021/10/30 00:57:27;;;;;;;8.33;6.33;;;;;;;9.96;71.70;100181.34;5033630;28;20217;-72
2021/10/30 00:59:53;;;;;;;9.50;6.60;;;;;;;9.98;71.38;100186.56;5033525;28;20675;-71
2021/10/30 01:02:20;;;;;;;7.33;6.37;;;;;;;10.02;71.75;100182.75;5032847;28;20242;-72
2021/10/30 01:04:48;;;;;;;9.33;6.37;;;;;;;10.04;71.65;100180.81;5033579;28;20221;-72
2021/10/30 01:07:15;;;;;;;8.27;6.23;;;;;;;10.07;71.75;100180.59;5032303;28;20217;-71
2021/10/30 01:09:41;;;;;;;9.03;6.63;;;;;;;10.10;71.45;100173.28;5033814;28;20210;-72
2021/10/30 01:12:09;;;;;;;7.60;5.83;;;;;;;10.14;70.92;100173.91;5032606;28;20683;-71
2021/10/30 01:14:37;;;;;;;8.43;6.33;;;;;;;10.16;71.49;100177.34;5037195;28;20229;-71
2021/10/30 01:17:06;;;;;;;9.03;6.20;;;;;;;10.18;71.37;100167.44;5033090;28;20218;-72
2021/10/30 01:19:34;;;;;;;7.77;5.80;;;;;;;10.23;70.99;100183.94;5032572;28;20301;-71
2021/10/30 01:22:02;;;;;;;8.37;6.77;;;;;;;10.27;70.91;100172.13;5033479;28;20226;-72
2021/10/30 01:24:29;;;;;;;9.97;6.73;;;;;;;10.29;71.28;100162.25;5032458;28;20672;-72
2021/10/30 01:26:55;;;;;;;7.60;5.70;;;;;;;10.33;71.13;100165.53;5033002;28;20221;-71
2021/10/30 01:29:22;;;;;;;8.33;5.87;;;;;;;10.36;71.00;100171.50;5032873;28;20202;-71
2021/10/30 01:31:49;;;;;;;8.00;6.37;;;;;;;10.39;70.69;100168.59;5033524;28;20234;-72
2021/10/30 01:34:17;;;;;;;6.83;6.13;;;;;;;10.39;70.72;100165.13;5033300;28;20230;-71
2021/10/30 01:36:43;;;;;;;8.63;6.83;;;;;;;10.40;70.27;100158.81;5031901;28;20586;-72
2021/10/30 01:39:13;;;;;;;8.77;6.80;;;;;;;10.39;70.60;100165.94;5039251;28;20198;-72
2021/10/30 01:41:39;;;;;;;9.93;6.63;;;;;;;10.41;70.40;100163.19;5039695;28;20226;-71
2021/10/30 01:44:07;;;;;;;8.10;6.50;;;;;;;10.40;70.28;100162.31;5032564;28;20221;-71
2021/10/30 01:46:34;;;;;;;9.10;6.40;;;;;;;10.42;70.22;100160.41;5032577;28;20210;-71
2021/10/30 01:49:01;;;;;;;8.83;6.57;;;;;;;10.42;70.46;100163.06;5032168;28;20221;-71
2021/10/30 01:51:28;;;;;;;8.73;6.63;;;;;;;10.43;70.55;100162.13;5032406;28;20210;-71
2021/10/30 01:53:57;;;;;;;8.07;6.57;;;;;;;10.41;70.27;100152.53;5032172;28;20241;-71
2021/10/30 01:56:25;;;;;;;8.57;6.83;;;;;;;10.39;70.25;100157.97;5031425;28;20218;-72
2021/10/30 01:58:52;;;;;;;8.47;6.77;;;;;;;10.39;70.29;100152.63;5029000;28;20225;-71
2021/10/30 02:01:19;;;;;;;7.83;6.20;;;;;;;10.38;70.10;100148.31;5032545;28;20221;-71
2021/10/30 02:03:45;;;;;;;10.40;6.70;;;;;;;10.38;70.26;100147.44;5031939;28;20231;-72
2021/10/30 02:06:12;;;;;;;9.20;6.33;;;;;;;10.37;70.14;100143.06;5031567;28;20202;-71
2021/10/30 02:08:38;;;;;;;8.63;7.20;;;;;;;10.36;70.34;100134.25;5031649;28;20214;-71
2021/10/30 02:11:05;;;;;;;9.07;6.73;;;;;;;10.35;70.14;100143.19;5031438;28;20210;-71
2021/10/30 02:13:33;;;;;;;9.10;7.03;;;;;;;10.35;70.40;100137.88;5032119;28;20296;-71
2021/10/30 02:16:01;;;;;;;9.70;7.00;;;;;;;10.36;70.58;100133.38;5031890;28;20231;-72
2021/10/30 02:18:27;;;;;;;9.63;7.20;;;;;;;10.36;70.45;100120.94;5031704;28;20210;-71
2021/10/30 02:20:54;;;;;;;10.90;7.10;;;;;;;10.35;70.44;100121.03;5032087;28;20206;-72
2021/10/30 02:23:20;;;;;;;8.80;7.20;;;;;;;10.33;70.57;100122.94;5051628;22;20242;-80
2021/10/30 02:25:47;;;;;;;11.60;7.60;;;;;;;10.30;70.14;100128.50;5048902;28;20228;-82
2021/10/30 02:28:14;;;;;;;11.03;7.90;;;;;;;10.26;70.69;100125.19;5045739;28;20202;-81
2021/10/30 02:30:42;;;;;;;9.67;7.73;;;;;;;10.24;70.14;100118.25;5049560;28;20615;-81
2021/10/30 02:33:08;;;;;;;9.40;8.13;;;;;;;10.21;70.29;100115.84;5048673;28;20210;-80
2021/10/30 02:35:35;;;;;;;10.03;7.80;;;;;;;10.18;70.61;100116.88;5052075;28;20237;-81
2021/10/30 02:38:02;;;;;;;9.70;7.83;;;;;;;10.14;70.52;100111.88;5054616;28;20220;-81
2021/10/30 02:40:28;;;;;;;11.00;8.10;;;;;;;10.10;70.54;100112.06;5042602;28;20216;-80
2021/10/30 02:42:55;;;;;;;12.40;8.60;;;;;;;10.07;70.50;100120.25;5042820;28;20213;-80
2021/10/30 02:45:21;;;;;;;12.10;8.30;;;;;;;10.05;70.76;100121.31;5052822;28;20226;-81
2021/10/30 02:47:49;;;;;;;10.47;7.83;;;;;;;10.03;70.81;100125.94;5054881;28;20220;-81
2021/10/30 02:50:16;;;;;;;12.60;8.57;;;;;;;10.01;70.94;100119.88;5054469;28;20297;-80
2021/10/30 02:52:43;;;;;;;10.93;8.63;;;;;;;9.99;70.83;100116.44;5054516;28;20210;-80
2021/10/30 02:55:10;;;;;;;12.77;8.60;;;;;;;9.97;70.86;100115.69;5047616;28;20237;-80
2021/10/30 02:57:37;;;;;;;10.07;8.13;;;;;;;9.95;70.78;100115.81;5050524;28;20206;-80
2021/10/30 03:00:05;;;;;;;12.67;8.83;;;;;;;9.95;70.82;100109.63;5053198;28;20217;-80
2021/10/30 03:02:32;;;;;;;10.50;8.47;;;;;;;9.93;71.51;100103.56;5053685;28;20206;-80
2021/10/30 03:04:59;;;;;;;11.03;8.60;;;;;;;9.91;71.49;100094.84;5054129;28;20228;-80
2021/10/30 03:07:26;;;;;;;13.87;8.63;;;;;;;9.90;71.10;100104.63;5049457;28;20206;-80
2021/10/30 03:09:52;;;;;;;11.30;9.10;;;;;;;9.89;71.13;100094.09;5040295;28;20608;-80
2021/10/30 03:12:19;;;;;;;10.60;8.47;;;;;;;9.88;70.84;100100.34;5047580;28;20210;-81
2021/10/30 03:14:46;;;;;;;10.90;9.30;;;;;;;9.87;71.00;100102.16;5046310;28;20240;-81
2021/10/30 03:17:13;;;;;;;11.30;8.00;;;;;;;9.87;71.31;100098.66;5048930;28;20671;-81
2021/10/30 03:19:40;;;;;;;11.23;8.97;;;;;;;9.86;71.54;100092.50;5053375;28;20205;-80
2021/10/30 03:22:08;;;;;;;13.70;8.57;;;;;;;9.86;70.97;100094.28;5036957;28;20214;-80
2021/10/30 03:24:36;;;;;;;12.40;8.50;;;;;;;9.86;71.05;100088.97;5041116;28;20283;-81
2021/10/30 03:27:02;;;;;;;11.40;7.77;;;;;;;9.85;70.84;100093.47;5052180;28;20209;-80
2021/10/30 03:29:29;;;;;;;12.70;8.70;;;;;;;9.86;71.20;100091.63;5041465;28;20212;-80
2021/10/30 03:31:55;;;;;;;9.90;7.83;;;;;;;9.84;70.69;100096.25;5040973;28;20695;-80
2021/10/30 03:34:22;;;;;;;12.73;9.23;;;;;;;9.80;71.15;100092.94;5047673;28;20233;-80
2021/10/30 03:36:48;;;;;;;11.97;9.03;;;;;;;9.79;70.64;100096.53;5045926;28;20206;-81
2021/10/30 03:39:16;;;;;;;10.57;8.57;;;;;;;9.76;70.56;100102.06;5040641;28;20206;-80
2021/10/30 03:41:43;;;;;;;13.07;8.53;;;;;;;9.73;70.97;100103.13;5046278;28;20213;-80
2021/10/30 03:44:09;;;;;;;13.03;9.57;;;;;;;9.71;71.02;100099.72;5047638;28;20226;-81
2021/10/30 03:46:36;;;;;;;10.77;8.90;;;;;;;9.70;70.90;100094.50;5034877;28;20210;-81
2021/10/30 03:49:02;;;;;;;11.07;8.83;;;;;;;9.68;70.64;100089.28;5035330;28;20237;-80
2021/10/30 03:51:29;;;;;;;10.63;9.40;;;;;;;9.66;70.64;100085.91;5040497;28;20216;-80
2021/10/30 03:53:55;;;;;;;12.47;9.20;;;;;;;9.66;70.83;100085.91;5046104;28;20218;-80
2021/10/30 03:56:23;;;;;;;12.00;9.77;;;;;;;9.66;70.56;100072.63;5052325;28;20233;-81
2021/10/30 03:58:50;;;;;;;12.67;9.93;;;;;;;9.66;70.58;100074.41;5045648;28;20216;-81
2021/10/30 04:01:16;;;;;;;13.40;9.73;;;;;;;9.65;70.63;100062.94;5045526;28;20210;-81
2021/10/30 04:03:44;;;;;;;15.40;10.37;;;;;;;9.66;71.19;100061.97;5049184;28;20218;-81
2021/10/30 04:06:10;;;;;;;13.20;9.87;;;;;;;9.68;70.80;100060.03;5042060;28;20221;-81
2021/10/30 04:08:37;;;;;;;13.00;10.07;;;;;;;9.70;70.95;100049.28;5040332;28;20210;-80
2021/10/30 04:11:03;;;;;;;10.50;8.80;;;;;;;9.71;71.31;100057.16;5046517;28;20301;-80
2021/10/30 04:13:31;;;;;;;12.20;9.13;;;;;;;9.73;70.99;100054.41;5049099;28;20679;-80
2021/10/30 04:15:58;;;;;;;11.40;8.50;;;;;;;9.74;70.81;100048.13;5044499;28;20233;-81
2021/10/30 04:18:24;;;;;;;11.47;8.83;;;;;;;9.75;70.34;100040.06;5050230;28;20206;-80
2021/10/30 04:20:51;;;;;;;11.07;8.53;;;;;;;9.80;70.42;100039.75;5041308;28;20584;-80
2021/10/30 04:23:17;;;;;;;11.10;7.73;;;;;;;9.83;69.93;100034.22;5054110;28;20224;-80
2021/10/30 04:25:44;;;;;;;11.17;8.87;;;;;;;9.82;69.75;100034.31;5034716;28;20222;-80
2021/10/30 04:28:11;;;;;;;10.37;8.07;;;;;;;9.84;69.87;100027.94;5034519;28;20659;-81
2021/10/30 04:30:39;;;;;;;11.50;7.90;;;;;;;9.87;69.11;100033.03;5051869;28;20213;-81
2021/10/30 04:33:06;;;;;;;12.30;9.27;;;;;;;9.89;69.16;100028.44;5044056;28;20214;-80
2021/10/30 04:35:35;;;;;;;11.13;9.20;;;;;;;9.92;69.00;100022.06;5035921;28;20747;-80
2021/10/30 04:38:01;;;;;;;12.90;9.80;;;;;;;9.95;68.90;100024.50;5044698;28;20214;-81
2021/10/30 04:40:28;;;;;;;13.37;9.77;;;;;;;9.95;68.68;100020.03;5031992;28;20206;-80
2021/10/30 04:42:54;;;;;;;15.27;9.30;;;;;;;9.98;68.89;100021.63;5036473;28;20213;-81
2021/10/30 04:45:21;;;;;;;11.00;8.60;;;;;;;9.97;68.27;100015.47;5050816;28;20236;-81
2021/10/30 04:47:49;;;;;;;11.60;8.87;;;;;;;10.00;68.08;100014.41;5047502;28;20214;-81
2021/10/30 04:50:16;;;;;;;11.83;9.30;;;;;;;10.03;68.19;100014.19;5042231;28;20228;-81
2021/10/30 04:52:43;;;;;;;11.57;8.73;;;;;;;10.05;67.74;100005.13;5044275;28;20664;-81
2021/10/30 04:55:10;;;;;;;9.13;8.20;;;;;;;10.06;67.61;100003.31;5044676;28;20234;-81
2021/10/30 04:57:37;;;;;;;11.17;8.63;;;;;;;10.08;67.26;100004.91;5044564;28;20580;-80
2021/10/30 05:00:04;;;;;;;12.07;8.87;;;;;;;10.09;67.59;99997.78;5037846;28;20215;-80
2021/10/30 05:02:31;;;;;;;11.40;8.43;;;;;;;10.08;67.32;100002.25;5045224;28;20211;-80
2021/10/30 05:04:59;;;;;;;10.17;8.50;;;;;;;10.10;67.15;100004.78;5042118;28;20591;-81
2021/10/30 05:07:25;;;;;;;11.90;8.30;;;;;;;10.10;67.25;99999.47;5042008;28;20206;-81
2021/10/30 05:09:52;;;;;;;10.63;7.93;;;;;;;10.12;66.72;100004.69;5046894;28;20217;-80
2021/10/30 05:12:18;;;;;;;9.23;7.70;;;;;;;10.12;66.79;100008.19;5047732;28;20206;-80
2021/10/30 05:14:45;;;;;;;11.80;9.30;;;;;;;10.14;66.57;100000.09;5052050;28;20730;-80
2021/10/30 05:17:11;;;;;;;10.43;8.30;;;;;;;10.14;66.55;99995.63;5051148;28;20230;-80
2021/10/30 05:19:38;;;;;;;9.37;7.30;;;;;;;10.15;66.57;99984.03;5053567;28;20217;-80
2021/10/30 05:22:06;;;;;;;11.33;8.43;;;;;;;10.16;66.16;99993.72;5038944;28;20217;-80
2021/10/30 05:24:33;;;;;;;10.27;7.93;;;;;;;10.17;66.43;99989.25;5035618;28;20245;-81
2021/10/30 05:26:59;;;;;;;11.10;8.53;;;;;;;10.18;66.14;99982.97;5037717;28;20206;-80
2021/10/30 05:29:26;;;;;;;11.57;8.17;;;;;;;10.18;65.91;99981.16;5038113;28;20224;-81
2021/10/30 05:31:52;;;;;;;9.33;7.60;;;;;;;10.20;65.80;99978.44;5040009;28;20545;-81
2021/10/30 05:34:19;;;;;;;10.70;7.60;;;;;;;10.21;65.72;99980.94;5051356;28;20226;-81
2021/10/30 05:36:45;;;;;;;11.83;8.07;;;;;;;10.20;65.36;99979.28;5049695;28;20230;-80
2021/10/30 05:39:16;;;;;;;10.93;7.93;;;;;;;10.20;65.48;99981.09;5047931;28;20656;-80
2021/10/30 05:41:43;;;;;;;12.17;7.50;;;;;;;10.20;65.52;99981.09;5048666;28;20206;-81
2021/10/30 05:44:11;;;;;;;10.13;8.20;;;;;;;10.21;65.56;99980.13;5040165;28;20234;-80
2021/10/30 05:46:38;;;;;;;10.00;8.10;;;;;;;10.22;64.88;99987.13;5042709;28;20213;-80
2021/10/30 05:49:06;;;;;;;10.40;8.27;;;;;;;10.22;65.16;99985.31;5051330;28;20207;-80
2021/10/30 05:51:32;;;;;;;11.97;8.53;;;;;;;10.22;65.00;99990.63;5043211;28;20212;-81
2021/10/30 05:53:59;;;;;;;12.23;9.33;;;;;;;10.22;64.68;99987.13;5044420;28;20214;-81
2021/10/30 05:56:27;;;;;;;12.30;9.10;;;;;;;10.21;64.75;99972.97;5042326;28;20230;-80
2021/10/30 05:58:54;;;;;;;11.00;9.13;;;;;;;10.22;64.61;99977.31;5052072;28;20664;-81
2021/10/30 06:01:22;;;;;;;11.10;8.80;;;;;;;10.25;64.83;99992.22;5053877;28;20209;-80
2021/10/30 06:03:48;;;;;;;11.60;9.57;;;;;;;10.25;64.81;99993.06;5053029;28;20205;-81
2021/10/30 06:06:15;;;;;;;16.00;11.07;;;;;;;10.26;64.23;99992.13;5055124;28;20216;-82
2021/10/30 06:08:41;;;;;;;13.17;10.20;;;;;;;10.27;64.66;99992.97;5044274;28;20681;-80
2021/10/30 06:11:08;;;;;;;12.43;10.37;;;;;;;10.29;64.51;99988.38;5049523;28;20202;-80
2021/10/30 06:13:36;;;;;;;14.93;9.93;;;;;;;10.29;64.57;99975.94;5041935;28;20214;-80
2021/10/30 06:16:03;;;;;;;12.23;9.93;;;;;;;10.30;64.48;99982.94;5054152;28;20235;-80
2021/10/30 06:18:29;;;;;;;13.53;10.00;;;;;;;10.30;64.47;99977.63;5045608;28;20214;-81
2021/10/30 06:20:56;;;;;;;12.80;10.07;;;;;;;10.32;64.40;99993.50;5048822;28;20210;-81
2021/10/30 06:23:22;;;;;;;12.70;9.90;;;;;;;10.33;64.64;99984.53;5035214;28;20575;-80
2021/10/30 06:25:49;;;;;;;12.67;9.27;;;;;;;10.36;64.33;99987.84;5047828;28;20232;-80
2021/10/30 06:28:16;;;;;;;13.23;10.07;;;;;;;10.38;64.34;99977.94;5048076;28;20210;-81
2021/10/30 06:30:44;;;;;;;10.40;7.90;;;;;;;10.44;64.16;99976.63;5043912;28;20656;-80
2021/10/30 06:33:10;;;;;;;11.17;8.03;;;;;;;10.46;63.75;99980.03;5047625;28;20207;-80
2021/10/30 06:35:37;;;;;;;12.37;8.57;;;;;;;10.50;63.82;99989.50;5044729;28;20264;-80
2021/10/30 06:38:03;;;;;;;10.40;8.00;;;;;;;10.55;63.65;99981.16;5048129;28;20682;-81
2021/10/30 06:40:30;;;;;;;9.33;7.77;;;;;;;10.59;63.53;99971.97;5041249;28;20212;-80
2021/10/30 06:42:57;;;;;;;10.33;7.83;;;;;;;10.64;63.55;99977.81;5042064;28;20213;-80
2021/10/30 06:45:23;;;;;;;8.60;7.07;;;;;;;10.68;63.46;99965.97;5052584;28;20221;-80
2021/10/30 06:47:51;;;;;;;9.23;7.43;;;;;;;10.72;63.56;99970.97;5046440;28;20216;-80
2021/10/30 06:50:21;;;;;;;10.40;7.10;;;;;;;10.76;63.36;99972.41;5045065;28;20202;-80
2021/10/30 06:52:50;;;;;;;11.43;7.90;;;;;;;10.80;63.51;99970.38;5047611;28;20581;-80
2021/10/30 06:55:18;;;;;;;8.87;7.00;;;;;;;10.84;63.33;99968.34;5041557;28;20248;-81
2021/10/30 06:57:45;;;;;;;9.47;7.10;;;;;;;10.88;63.33;99969.81;5051244;28;20226;-80
2021/10/30 07:00:13;;;;;;;9.97;6.67;;;;;;;10.90;63.28;99970.56;5047161;28;20300;-80
2021/10/30 07:02:40;;;;;;;9.90;7.50;;;;;;;10.91;63.08;99965.09;5042724;28;20198;-81
2021/10/30 07:05:09;;;;;;;9.70;7.50;;;;;;;10.92;63.42;99958.81;5048142;28;20226;-80
2021/10/30 07:07:35;;;;;;;13.07;7.80;;;;;;;10.92;63.31;99948.16;5038776;28;20209;-82
2021/10/30 07:10:02;;;;;;;8.73;7.10;;;;;;;10.93;63.35;99956.97;5053591;28;20304;-83
2021/10/30 07:12:30;;;;;;;7.77;6.80;;;;;;;10.96;63.25;99957.59;5042735;28;20213;-83
2021/10/30 07:14:57;;;;;;;8.77;6.73;;;;;;;10.96;63.15;99957.59;5050045;28;20226;-82
2021/10/30 07:17:24;;;;;;;8.87;6.93;;;;;;;10.97;63.18;99956.63;5055418;28;20231;-82
2021/10/30 07:19:52;;;;;;;7.97;6.83;;;;;;;10.98;63.23;99961.00;5056636;28;20313;-82
2021/10/30 07:22:20;;;;;;;8.50;7.13;;;;;;;10.98;63.16;99950.34;5041342;28;20634;-82
2021/10/30 07:24:47;;;;;;;8.37;6.67;;;;;;;10.98;63.22;99955.66;5050892;28;20238;-83
2021/10/30 07:27:16;;;;;;;9.63;7.57;;;;;;;11.00;63.30;99955.56;5043203;28;20669;-83
2021/10/30 07:29:44;;;;;;;9.13;7.00;;;;;;;11.00;63.34;99961.72;5041363;28;20215;-84
2021/10/30 07:32:11;;;;;;;11.13;7.33;;;;;;;11.01;63.53;99970.56;5052501;28;20211;-83
2021/10/30 07:34:37;;;;;;;9.70;7.10;;;;;;;11.02;63.47;99964.28;5049941;28;20707;-83
2021/10/30 07:37:04;;;;;;;10.00;7.50;;;;;;;11.02;63.45;99957.13;5033269;28;20241;-83
2021/10/30 07:39:34;;;;;;;9.57;6.57;;;;;;;11.03;63.45;99958.84;5054725;28;20293;-83
2021/10/30 07:42:01;;;;;;;7.97;6.83;;;;;;;11.04;63.28;99970.34;5035863;28;20688;-84
2021/10/30 07:44:27;;;;;;;9.67;7.77;;;;;;;11.02;63.63;99957.13;5049398;28;20297;-83
2021/10/30 07:46:54;;;;;;;9.87;6.70;;;;;;;11.03;63.76;99952.66;5050044;28;20206;-84
2021/10/30 07:49:21;;;;;;;8.03;6.40;;;;;;;11.03;64.03;99948.19;5045364;28;20213;-83
2021/10/30 07:51:47;;;;;;;8.43;7.17;;;;;;;11.05;64.27;99953.41;5048829;28;20222;-84
2021/10/30 07:54:14;;;;;;;8.57;7.07;;;;;;;11.04;64.47;99952.53;5038750;28;20306;-84
2021/10/30 07:56:42;;;;;;;7.90;5.83;;;;;;;11.02;64.57;99957.13;5043618;28;20241;-85
2021/10/30 07:59:08;;;;;;;9.87;6.57;;;;;;;11.03;64.98;99966.84;5039985;28;20206;-84
2021/10/30 08:01:35;;;;;;;13.83;7.10;;;;;;;11.04;65.11;99962.34;5039024;28;20219;-84
2021/10/30 08:04:02;;;;;;;8.00;6.77;;;;;;;11.04;65.17;99954.34;5048285;28;20209;-84
2021/10/30 08:06:29;;;;;;;9.87;7.70;;;;;;;11.05;65.15;99956.06;5046552;28;20355;-84
2021/10/30 08:08:55;;;;;;;8.20;6.83;;;;;;;11.08;65.23;99959.34;5043392;28;20209;-84
2021/10/30 08:11:22;;;;;;;9.83;6.43;;;;;;;11.10;65.53;99952.09;5046351;28;20202;-85
2021/10/30 08:13:50;;;;;;;8.10;6.70;;;;;;;11.14;65.82;99950.00;5046967;28;20569;-84
2021/10/30 08:16:17;;;;;;;9.17;7.13;;;;;;;11.19;65.71;99942.53;5047082;28;20225;-84
2021/10/30 08:18:43;;;;;;;7.63;6.70;;;;;;;11.22;65.69;99952.09;5049623;28;20202;-84
2021/10/30 08:21:10;;;;;;;9.70;6.93;;;;;;;11.24;65.75;99956.34;5045061;28;20224;-85
2021/10/30 08:23:36;;;;;;;13.87;7.03;;;;;;;11.26;65.96;99951.75;5040948;28;20210;-84
2021/10/30 08:26:04;;;;;;;9.90;7.47;;;;;;;11.30;65.97;99958.53;5035846;28;20707;-83
2021/10/30 08:28:31;;;;;;;9.23;7.13;;;;;;;11.34;66.26;99965.31;5041528;28;20297;-84
2021/10/30 08:30:59;;;;;;;9.80;7.50;;;;;;;11.40;66.55;99956.84;5047691;28;20208;-84
2021/10/30 08:33:25;;;;;;;9.33;6.97;;;;;;;11.44;66.86;99961.00;5038936;28;20683;-84
2021/10/30 08:35:52;;;;;;;7.83;5.97;;;;;;;11.50;66.93;99959.66;5044264;28;20598;-83
2021/10/30 08:38:19;;;;;;;8.07;6.73;;;;;;;11.55;66.90;99956.63;5042717;28;20246;-84
2021/10/30 08:40:45;;;;;;;7.90;5.83;;;;;;;11.59;67.00;99956.28;5042867;28;20203;-85
2021/10/30 08:43:19;;;;;;;8.77;6.13;;;;;;;11.65;67.10;99953.09;5047928;28;20204;-84
2021/10/30 08:45:46;;;;;;;9.80;6.53;;;;;;;11.67;66.80;99952.97;5041717;28;20336;-85
2021/10/30 08:48:14;;;;;;;9.60;6.63;;;;;;;11.67;66.48;99948.50;5042461;28;20293;-84
2021/10/30 08:50:41;;;;;;;6.23;5.63;;;;;;;11.69;66.27;99945.72;5046779;28;20675;-83
2021/10/30 08:53:07;;;;;;;6.30;5.63;;;;;;;11.70;65.98;99942.06;5045435;28;20204;-84
2021/10/30 08:55:34;;;;;;;9.13;5.70;;;;;;;11.73;65.94;99932.03;5053931;28;20223;-84
2021/10/30 08:58:06;;;;;;;7.03;5.33;;;;;;;11.76;66.17;99934.47;5045317;28;20225;-84
2021/10/30 09:00:36;;;;;;;7.83;5.80;;;;;;;11.80;66.27;99924.41;5048174;28;20210;-85
2021/10/30 09:03:05;;;;;;;6.83;5.40;;;;;;;11.86;66.29;99910.56;5050260;28;20196;-84
2021/10/30 09:05:33;;;;;;;9.00;6.47;;;;;;;11.91;66.49;99921.72;5047599;28;20314;-84
2021/10/30 09:08:02;;;;;;;8.40;5.90;;;;;;;11.96;66.57;99913.38;5051908;28;20232;-83
2021/10/30 09:10:31;;;;;;;9.50;6.43;;;;;;;12.01;66.62;99917.34;5048234;28;20270;-84
2021/10/30 09:12:58;;;;;;;6.97;5.67;;;;;;;12.08;66.58;99899.88;5050124;28;20215;-83
2021/10/30 09:15:35;;;;;;;7.77;5.73;;;;;;;12.12;66.54;99890.63;5042021;28;20694;-83
2021/10/30 09:18:02;;;;;;;7.30;5.60;;;;;;;12.15;66.46;99885.06;5058135;28;20598;-82
2021/10/30 09:20:33;;;;;;;8.17;5.40;;;;;;;12.19;66.30;99885.63;5054080;28;20580;-82
2021/10/30 09:22:59;;;;;;;6.83;4.97;;;;;;;12.22;66.23;99880.03;5061108;28;20220;-82
2021/10/30 09:25:26;;;;;;;7.03;5.30;;;;;;;12.24;66.43;99872.75;5051162;28;20239;-83
2021/10/30 09:27:55;;;;;;;6.00;5.10;;;;;;;12.27;66.23;99877.84;5038818;28;20206;-82
2021/10/30 09:30:25;;;;;;;6.60;5.10;;;;;;;12.25;66.00;99858.44;5039496;28;20214;-83
2021/10/30 09:32:57;;;;;;;5.90;4.67;;;;;;;12.26;65.73;99860.13;5039255;28;20220;-82
2021/10/30 09:35:39;;;;;;;8.90;5.60;;;;;;;12.26;65.57;99851.28;5057556;28;20304;-83
2021/10/30 09:38:06;;;;;;;5.87;5.27;;;;;;;12.27;65.22;99850.31;5058231;28;20217;-82
2021/10/30 09:40:34;;;;;;;6.73;4.93;;;;;;;12.30;65.38;99847.38;5056996;28;20204;-81
2021/10/30 09:43:10;;;;;;;5.17;4.27;;;;;;;12.34;65.11;99841.66;5046515;28;20725;-82
2021/10/30 09:45:40;;;;;;;7.67;4.90;;;;;;;12.41;65.27;99842.81;5050230;28;20243;-82
2021/10/30 09:48:08;;;;;;;5.93;4.97;;;;;;;12.48;64.75;99844.03;5048031;28;20220;-82
2021/10/30 09:50:36;;;;;;;7.13;4.97;;;;;;;12.55;64.82;99841.66;5045802;28;20222;-82
2021/10/30 09:53:27;;;;;;;6.40;5.43;;;;;;;12.64;64.93;99840.06;5048711;28;20207;-82
2021/10/30 09:55:55;;;;;;;7.83;6.13;;;;;;;12.70;64.23;99832.38;5047848;28;20227;-82
2021/10/30 09:58:34;;;;;;;6.83;4.80;;;;;;;12.75;63.89;99832.81;5053413;28;20230;-82
2021/10/30 10:01:11;;;;;;;6.83;5.20;;;;;;;12.78;62.85;99826.38;5052530;28;20256;-82
2021/10/30 10:03:39;;;;;;;6.70;5.00;;;;;;;12.81;62.47;99820.75;5045961;28;20228;-82
2021/10/30 10:06:09;;;;;;;7.83;5.57;;;;;;;12.85;62.04;99830.22;5041439;28;20468;-82
2021/10/30 10:08:38;;;;;;;6.00;5.27;;;;;;;12.88;62.13;99827.28;5043639;28;20206;-82
2021/10/30 10:11:07;;;;;;;5.63;5.07;;;;;;;12.94;61.92;99820.53;5049556;28;20598;-82
2021/10/30 10:13:36;;;;;;;6.80;5.20;;;;;;;12.98;61.38;99819.31;5041392;28;20668;-81
2021/10/30 10:16:04;;;;;;;7.37;5.37;;;;;;;13.01;61.68;99806.53;5045229;28;20225;-82
2021/10/30 10:18:31;;;;;;;8.50;6.00;;;;;;;13.05;61.36;99804.44;5045776;28;20218;-82
2021/10/30 10:20:57;;;;;;;7.53;5.70;;;;;;;13.07;61.06;99792.66;5048564;28;20224;-81
2021/10/30 10:23:25;;;;;;;7.10;5.80;;;;;;;13.09;61.22;99787.97;5050968;28;20212;-82
2021/10/30 10:25:55;;;;;;;9.27;6.57;;;;;;;13.13;60.89;99776.03;5055206;28;20714;-81
2021/10/30 10:28:26;;;;;;;6.90;6.20;;;;;;;13.16;60.89;99761.59;5055282;28;20200;-81
2021/10/30 10:31:09;;;;;;;7.93;6.20;;;;;;;13.17;60.36;99752.59;5047681;28;20221;-82
2021/10/30 10:33:36;;;;;;;8.73;6.00;;;;;;;13.17;59.84;99741.91;5040106;28;20304;-81
2021/10/30 10:36:25;;;;;;;7.73;6.10;;;;;;;13.19;59.90;99743.47;5055573;28;20227;-81
2021/10/30 10:39:12;;;;;;;7.47;5.77;;;;;;;13.19;59.32;99734.59;5054312;28;20309;-82
2021/10/30 10:41:58;;;;;;;6.17;5.23;;;;;;;13.19;58.94;99729.25;5056811;28;20304;-81
2021/10/30 10:45:05;;;;;;;6.37;5.67;;;;;;;13.17;58.90;99740.06;5044566;28;20312;-82
2021/10/30 10:48:05;;;;;;;6.83;6.03;;;;;;;13.16;58.68;99749.06;5052960;28;20205;-82
2021/10/30 10:50:52;;;;;;;7.07;5.70;;;;;;;13.18;58.74;99738.25;5054891;28;20307;-81
2021/10/30 10:53:29;;;;;;;7.93;5.60;;;;;;;13.19;58.53;99743.47;5047429;28;20305;-81
2021/10/30 10:56:19;;;;;;;7.57;5.07;;;;;;;13.20;58.35;99739.81;5054282;28;20722;-82
2021/10/30 10:59:16;;;;;;;6.93;6.10;;;;;;;13.24;58.12;99739.53;5048994;28;20312;-82
2021/10/30 11:02:19;;;;;;;6.30;5.70;;;;;;;13.25;58.75;99739.41;5049255;28;20747;-82
2021/10/30 11:05:24;;;;;;;5.83;5.20;;;;;;;13.31;58.18;99743.34;5046021;28;20239;-81
2021/10/30 11:08:22;;;;;;;12.57;5.90;;;;;;;13.33;58.50;99738.72;5053616;28;20205;-82
2021/10/30 11:10:48;;;;;;;7.57;5.57;;;;;;;13.34;58.03;99738.56;5051856;28;20198;-82
2021/10/30 11:13:21;;;;;;;6.03;5.13;;;;;;;13.36;57.76;99738.44;5049802;28;20273;-82
2021/10/30 11:15:52;;;;;;;5.30;4.50;;;;;;;13.35;55.89;99734.06;5048788;28;20326;-82
2021/10/30 11:18:32;;;;;;;6.13;4.40;;;;;;;13.36;55.86;99738.44;5045023;28;20239;-81
2021/10/30 11:21:16;;;;;;;7.80;4.77;;;;;;;13.36;54.54;99733.09;5037483;28;20225;-82
2021/10/30 11:23:44;;;;;;;7.23;5.53;;;;;;;13.39;53.70;99733.69;5049195;28;20217;-82
2021/10/30 11:26:12;;;;;;;5.83;5.20;;;;;;;13.44;53.35;99727.88;5053057;28;20315;-81
2021/10/30 11:28:40;;;;;;;5.90;4.93;;;;;;;13.50;53.19;99735.38;5047244;28;20206;-82
2021/10/30 11:31:14;;;;;;;5.70;4.67;;;;;;;13.53;52.82;99735.09;5044354;28;20580;-81
2021/10/30 11:33:41;;;;;;;5.40;4.40;;;;;;;13.57;52.51;99739.19;5045063;28;20209;-82